sensor_id;sensor_type;location;lat;lon;timestamp;P1;durP1;ratioP1;P2;durP2;ratioP2
22904;SDS011;11619;50.140;8.518;2022-09-20T00:01:11;10.15;;;1.83;;
22904;SDS011;11619;50.140;8.518;2022-09-20T00:03:40;3.75;;;1.80;;
22904;SDS011;11619;50.140;8.518;2022-09-20T00:06:11;6.43;;;2.10;;
22904;SDS011;11619;50.140;8.518;2022-09-20T00:08:39;6.50;;;2.20;;
22904;SDS011;11619;50.140;8.518;2022-09-20T00:11:07;4.65;;;2.20;;
22904;SDS011;11619;50.140;8.518;2022-09-20T00:13:41;4.70;;;2.17;;
22904;SDS011;11619;50.140;8.518;2022-09-20T00:16:10;7.18;;;2.42;;
22904;SDS011;11619;50.140;8.518;2022-09-20T00:18:38;6.22;;;2.00;;
22904;SDS011;11619;50.140;8.518;2022-09-20T00:21:05;10.63;;;2.25;;
22904;SDS011;11619;50.140;8.518;2022-09-20T00:23:31;4.90;;;2.00;;
22904;SDS011;11619;50.140;8.518;2022-09-20T00:26:02;6.28;;;1.70;;
22904;SDS011;11619;50.140;8.518;2022-09-20T00:28:30;3.25;;;1.70;;
22904;SDS011;11619;50.140;8.518;2022-09-20T00:30:56;5.57;;;1.95;;
22904;SDS011;11619;50.140;8.518;2022-09-20T00:33:23;3.97;;;1.92;;
22904;SDS011;11619;50.140;8.518;2022-09-20T00:36:10;3.38;;;1.70;;
22904;SDS011;11619;50.140;8.518;2022-09-20T00:38:36;6.38;;;1.92;;
22904;SDS011;11619;50.140;8.518;2022-09-20T00:41:03;5.93;;;1.85;;
22904;SDS011;11619;50.140;8.518;2022-09-20T00:43:45;3.83;;;1.33;;
22904;SDS011;11619;50.140;8.518;2022-09-20T00:49:22;5.65;;;2.35;;
22904;SDS011;11619;50.140;8.518;2022-09-20T00:51:53;6.22;;;2.03;;
22904;SDS011;11619;50.140;8.518;2022-09-20T00:54:21;8.50;;;2.22;;
22904;SDS011;11619;50.140;8.518;2022-09-20T00:56:49;7.22;;;2.53;;
22904;SDS011;11619;50.140;8.518;2022-09-20T00:59:19;7.57;;;2.60;;
22904;SDS011;11619;50.140;8.518;2022-09-20T01:01:54;4.90;;;2.42;;
22904;SDS011;11619;50.140;8.518;2022-09-20T01:04:22;6.43;;;2.58;;
22904;SDS011;11619;50.140;8.518;2022-09-20T01:06:50;7.25;;;2.67;;
22904;SDS011;11619;50.140;8.518;2022-09-20T01:09:18;9.23;;;2.85;;
22904;SDS011;11619;50.140;8.518;2022-09-20T01:11:45;8.70;;;3.20;;
22904;SDS011;11619;50.140;8.518;2022-09-20T01:14:12;8.23;;;2.78;;
22904;SDS011;11619;50.140;8.518;2022-09-20T01:16:39;8.15;;;2.95;;
22904;SDS011;11619;50.140;8.518;2022-09-20T01:19:15;9.02;;;2.85;;
22904;SDS011;11619;50.140;8.518;2022-09-20T01:21:45;8.10;;;3.03;;
22904;SDS011;11619;50.140;8.518;2022-09-20T01:30:05;8.00;;;2.95;;
22904;SDS011;11619;50.140;8.518;2022-09-20T01:35:24;13.82;;;3.47;;
22904;SDS011;11619;50.140;8.518;2022-09-20T01:41:00;8.67;;;2.83;;
22904;SDS011;11619;50.140;8.518;2022-09-20T01:48:57;9.80;;;3.15;;
22904;SDS011;11619;50.140;8.518;2022-09-20T01:57:02;7.13;;;2.95;;
22904;SDS011;11619;50.140;8.518;2022-09-20T02:00:14;10.82;;;2.95;;
22904;SDS011;11619;50.140;8.518;2022-09-20T02:13:25;5.90;;;2.95;;
22904;SDS011;11619;50.140;8.518;2022-09-20T02:24:02;6.60;;;2.65;;
22904;SDS011;11619;50.140;8.518;2022-09-20T02:38:47;14.50;;;3.30;;
22904;SDS011;11619;50.140;8.518;2022-09-20T02:47:41;6.43;;;2.97;;
22904;SDS011;11619;50.140;8.518;2022-09-20T02:50:07;12.65;;;3.38;;
22904;SDS011;11619;50.140;8.518;2022-09-20T02:58:22;8.02;;;3.30;;
22904;SDS011;11619;50.140;8.518;2022-09-20T03:06:20;7.82;;;3.60;;
22904;SDS011;11619;50.140;8.518;2022-09-20T03:09:07;9.05;;;3.35;;
22904;SDS011;11619;50.140;8.518;2022-09-20T03:11:50;14.48;;;4.53;;
22904;SDS011;11619;50.140;8.518;2022-09-20T03:14:29;12.05;;;3.78;;
22904;SDS011;11619;50.140;8.518;2022-09-20T03:34:20;9.43;;;4.22;;
22904;SDS011;11619;50.140;8.518;2022-09-20T03:40:11;12.63;;;4.47;;
22904;SDS011;11619;50.140;8.518;2022-09-20T03:42:50;6.95;;;3.67;;
22904;SDS011;11619;50.140;8.518;2022-09-20T03:50:46;7.50;;;3.92;;
22904;SDS011;11619;50.140;8.518;2022-09-20T03:59:03;14.25;;;4.25;;
22904;SDS011;11619;50.140;8.518;2022-09-20T04:04:56;8.52;;;4.78;;
22904;SDS011;11619;50.140;8.518;2022-09-20T04:07:34;9.98;;;4.20;;
22904;SDS011;11619;50.140;8.518;2022-09-20T04:21:13;11.13;;;4.80;;
22904;SDS011;11619;50.140;8.518;2022-09-20T04:23:49;13.07;;;5.22;;
22904;SDS011;11619;50.140;8.518;2022-09-20T04:26:25;13.98;;;5.53;;
22904;SDS011;11619;50.140;8.518;2022-09-20T04:28:55;13.75;;;5.55;;
22904;SDS011;11619;50.140;8.518;2022-09-20T04:31:35;12.27;;;5.83;;
22904;SDS011;11619;50.140;8.518;2022-09-20T04:34:11;14.75;;;5.28;;
22904;SDS011;11619;50.140;8.518;2022-09-20T04:36:58;12.90;;;5.90;;
22904;SDS011;11619;50.140;8.518;2022-09-20T04:42:29;8.85;;;5.13;;
22904;SDS011;11619;50.140;8.518;2022-09-20T04:45:07;9.82;;;5.20;;
22904;SDS011;11619;50.140;8.518;2022-09-20T04:54:17;12.80;;;5.72;;
22904;SDS011;11619;50.140;8.518;2022-09-20T04:59:57;11.68;;;5.40;;
22904;SDS011;11619;50.140;8.518;2022-09-20T05:14:09;13.38;;;6.07;;
22904;SDS011;11619;50.140;8.518;2022-09-20T05:16:57;11.27;;;6.57;;
22904;SDS011;11619;50.140;8.518;2022-09-20T05:25:32;17.77;;;7.13;;
22904;SDS011;11619;50.140;8.518;2022-09-20T05:28:05;13.27;;;7.40;;
22904;SDS011;11619;50.140;8.518;2022-09-20T05:30:43;12.63;;;7.50;;
22904;SDS011;11619;50.140;8.518;2022-09-20T05:33:19;11.93;;;7.65;;
22904;SDS011;11619;50.140;8.518;2022-09-20T05:35:57;9.25;;;6.85;;
22904;SDS011;11619;50.140;8.518;2022-09-20T05:41:16;13.60;;;7.85;;
22904;SDS011;11619;50.140;8.518;2022-09-20T05:43:53;10.82;;;7.18;;
22904;SDS011;11619;50.140;8.518;2022-09-20T05:49:24;14.45;;;7.80;;
22904;SDS011;11619;50.140;8.518;2022-09-20T05:52:24;17.58;;;8.63;;
22904;SDS011;11619;50.140;8.518;2022-09-20T06:00:29;14.77;;;8.52;;
22904;SDS011;11619;50.140;8.518;2022-09-20T06:11:37;13.15;;;8.32;;
22904;SDS011;11619;50.140;8.518;2022-09-20T06:17:02;16.90;;;7.55;;
22904;SDS011;11619;50.140;8.518;2022-09-20T06:19:33;12.50;;;8.23;;
22904;SDS011;11619;50.140;8.518;2022-09-20T06:22:10;21.48;;;8.68;;
22904;SDS011;11619;50.140;8.518;2022-09-20T06:24:44;15.18;;;8.18;;
22904;SDS011;11619;50.140;8.518;2022-09-20T06:27:13;14.50;;;8.37;;
22904;SDS011;11619;50.140;8.518;2022-09-20T06:29:46;14.38;;;7.90;;
22904;SDS011;11619;50.140;8.518;2022-09-20T06:32:18;15.00;;;7.93;;
22904;SDS011;11619;50.140;8.518;2022-09-20T06:34:44;17.23;;;9.00;;
22904;SDS011;11619;50.140;8.518;2022-09-20T06:37:20;13.40;;;7.88;;
22904;SDS011;11619;50.140;8.518;2022-09-20T06:43:22;10.55;;;7.80;;
22904;SDS011;11619;50.140;8.518;2022-09-20T06:45:48;20.65;;;9.35;;
22904;SDS011;11619;50.140;8.518;2022-09-20T06:48:15;16.38;;;9.23;;
22904;SDS011;11619;50.140;8.518;2022-09-20T06:50:41;16.55;;;9.35;;
22904;SDS011;11619;50.140;8.518;2022-09-20T06:53:13;16.50;;;8.88;;
22904;SDS011;11619;50.140;8.518;2022-09-20T06:55:41;17.55;;;9.63;;
22904;SDS011;11619;50.140;8.518;2022-09-20T06:58:10;12.07;;;9.48;;
22904;SDS011;11619;50.140;8.518;2022-09-20T07:00:36;13.15;;;9.40;;
22904;SDS011;11619;50.140;8.518;2022-09-20T07:03:04;13.80;;;9.27;;
22904;SDS011;11619;50.140;8.518;2022-09-20T07:05:31;18.10;;;10.13;;
22904;SDS011;11619;50.140;8.518;2022-09-20T07:07:57;15.48;;;8.80;;
22904;SDS011;11619;50.140;8.518;2022-09-20T07:10:27;12.73;;;9.27;;
22904;SDS011;11619;50.140;8.518;2022-09-20T07:12:57;14.23;;;9.05;;
22904;SDS011;11619;50.140;8.518;2022-09-20T07:15:25;17.88;;;8.45;;
22904;SDS011;11619;50.140;8.518;2022-09-20T07:17:52;11.95;;;8.15;;
22904;SDS011;11619;50.140;8.518;2022-09-20T07:20:18;14.40;;;8.63;;
22904;SDS011;11619;50.140;8.518;2022-09-20T07:22:46;16.15;;;8.73;;
22904;SDS011;11619;50.140;8.518;2022-09-20T07:25:13;13.25;;;8.75;;
22904;SDS011;11619;50.140;8.518;2022-09-20T07:27:39;11.10;;;8.50;;
22904;SDS011;11619;50.140;8.518;2022-09-20T07:30:06;13.55;;;8.48;;
22904;SDS011;11619;50.140;8.518;2022-09-20T07:32:33;12.02;;;7.80;;
22904;SDS011;11619;50.140;8.518;2022-09-20T07:34:59;14.00;;;8.00;;
22904;SDS011;11619;50.140;8.518;2022-09-20T07:37:26;14.52;;;7.72;;
22904;SDS011;11619;50.140;8.518;2022-09-20T07:39:53;12.18;;;7.65;;
22904;SDS011;11619;50.140;8.518;2022-09-20T07:42:19;13.30;;;7.90;;
22904;SDS011;11619;50.140;8.518;2022-09-20T07:44:45;16.35;;;7.10;;
22904;SDS011;11619;50.140;8.518;2022-09-20T07:47:12;11.30;;;6.32;;
22904;SDS011;11619;50.140;8.518;2022-09-20T07:49:41;10.07;;;6.32;;
22904;SDS011;11619;50.140;8.518;2022-09-20T07:52:07;9.85;;;6.30;;
22904;SDS011;11619;50.140;8.518;2022-09-20T07:54:36;17.27;;;7.70;;
22904;SDS011;11619;50.140;8.518;2022-09-20T07:57:02;11.85;;;6.47;;
22904;SDS011;11619;50.140;8.518;2022-09-20T07:59:30;11.88;;;6.38;;
22904;SDS011;11619;50.140;8.518;2022-09-20T08:01:56;17.38;;;7.50;;
22904;SDS011;11619;50.140;8.518;2022-09-20T08:04:25;11.23;;;6.80;;
22904;SDS011;11619;50.140;8.518;2022-09-20T08:06:52;10.88;;;6.20;;
22904;SDS011;11619;50.140;8.518;2022-09-20T08:09:18;8.55;;;6.25;;
22904;SDS011;11619;50.140;8.518;2022-09-20T08:11:45;11.25;;;6.18;;
22904;SDS011;11619;50.140;8.518;2022-09-20T08:14:13;11.75;;;6.53;;
22904;SDS011;11619;50.140;8.518;2022-09-20T08:16:41;9.20;;;5.60;;
22904;SDS011;11619;50.140;8.518;2022-09-20T08:19:19;10.98;;;6.13;;
22904;SDS011;11619;50.140;8.518;2022-09-20T08:21:48;7.72;;;5.50;;
22904;SDS011;11619;50.140;8.518;2022-09-20T08:24:16;8.52;;;5.60;;
22904;SDS011;11619;50.140;8.518;2022-09-20T08:26:42;12.10;;;5.63;;
22904;SDS011;11619;50.140;8.518;2022-09-20T08:29:09;8.60;;;4.93;;
22904;SDS011;11619;50.140;8.518;2022-09-20T08:31:37;12.05;;;5.22;;
22904;SDS011;11619;50.140;8.518;2022-09-20T08:34:05;7.60;;;5.60;;
22904;SDS011;11619;50.140;8.518;2022-09-20T08:36:34;11.70;;;4.85;;
22904;SDS011;11619;50.140;8.518;2022-09-20T08:39:03;8.70;;;4.75;;
22904;SDS011;11619;50.140;8.518;2022-09-20T08:41:57;13.40;;;4.90;;
22904;SDS011;11619;50.140;8.518;2022-09-20T08:44:31;8.73;;;4.35;;
22904;SDS011;11619;50.140;8.518;2022-09-20T08:49:43;11.32;;;4.68;;
22904;SDS011;11619;50.140;8.518;2022-09-20T08:52:15;7.22;;;4.10;;
22904;SDS011;11619;50.140;8.518;2022-09-20T08:54:44;9.05;;;4.40;;
22904;SDS011;11619;50.140;8.518;2022-09-20T08:57:13;5.78;;;4.35;;
22904;SDS011;11619;50.140;8.518;2022-09-20T08:59:41;8.40;;;3.58;;
22904;SDS011;11619;50.140;8.518;2022-09-20T09:02:12;7.28;;;3.80;;
22904;SDS011;11619;50.140;8.518;2022-09-20T09:04:41;7.78;;;3.90;;
22904;SDS011;11619;50.140;8.518;2022-09-20T09:07:09;9.65;;;3.83;;
22904;SDS011;11619;50.140;8.518;2022-09-20T09:09:37;7.28;;;3.95;;
22904;SDS011;11619;50.140;8.518;2022-09-20T09:12:13;5.53;;;3.58;;
22904;SDS011;11619;50.140;8.518;2022-09-20T09:14:42;9.38;;;3.80;;
22904;SDS011;11619;50.140;8.518;2022-09-20T09:17:18;8.57;;;3.05;;
22904;SDS011;11619;50.140;8.518;2022-09-20T09:19:46;5.97;;;3.03;;
22904;SDS011;11619;50.140;8.518;2022-09-20T09:22:17;5.47;;;2.70;;
22904;SDS011;11619;50.140;8.518;2022-09-20T09:24:44;5.82;;;3.53;;
22904;SDS011;11619;50.140;8.518;2022-09-20T09:27:15;6.07;;;2.92;;
22904;SDS011;11619;50.140;8.518;2022-09-20T09:29:50;6.10;;;3.05;;
22904;SDS011;11619;50.140;8.518;2022-09-20T09:32:25;6.53;;;3.17;;
22904;SDS011;11619;50.140;8.518;2022-09-20T09:34:56;6.90;;;2.90;;
22904;SDS011;11619;50.140;8.518;2022-09-20T09:37:54;5.25;;;2.17;;
22904;SDS011;11619;50.140;8.518;2022-09-20T09:40:22;4.22;;;2.00;;
22904;SDS011;11619;50.140;8.518;2022-09-20T09:42:53;6.93;;;2.60;;
22904;SDS011;11619;50.140;8.518;2022-09-20T09:45:29;7.88;;;2.28;;
22904;SDS011;11619;50.140;8.518;2022-09-20T09:47:57;6.95;;;2.65;;
22904;SDS011;11619;50.140;8.518;2022-09-20T09:50:26;4.97;;;2.22;;
22904;SDS011;11619;50.140;8.518;2022-09-20T09:53:01;3.85;;;2.42;;
22904;SDS011;11619;50.140;8.518;2022-09-20T09:56:00;6.50;;;2.40;;
22904;SDS011;11619;50.140;8.518;2022-09-20T10:01:19;2.60;;;1.77;;
22904;SDS011;11619;50.140;8.518;2022-09-20T10:04:04;4.45;;;2.20;;
22904;SDS011;11619;50.140;8.518;2022-09-20T10:07:00;5.47;;;1.60;;
22904;SDS011;11619;50.140;8.518;2022-09-20T10:15:37;4.30;;;1.90;;
22904;SDS011;11619;50.140;8.518;2022-09-20T10:18:14;4.13;;;1.63;;
22904;SDS011;11619;50.140;8.518;2022-09-20T10:27:13;4.82;;;1.55;;
22904;SDS011;11619;50.140;8.518;2022-09-20T10:30:00;3.10;;;1.45;;
22904;SDS011;11619;50.140;8.518;2022-09-20T10:35:34;4.15;;;1.45;;
22904;SDS011;11619;50.140;8.518;2022-09-20T10:38:33;3.22;;;1.50;;
22904;SDS011;11619;50.140;8.518;2022-09-20T10:41:06;4.43;;;1.70;;
22904;SDS011;11619;50.140;8.518;2022-09-20T10:46:39;5.45;;;1.77;;
22904;SDS011;11619;50.140;8.518;2022-09-20T10:49:26;6.53;;;2.10;;
22904;SDS011;11619;50.140;8.518;2022-09-20T10:54:39;4.75;;;1.60;;
22904;SDS011;11619;50.140;8.518;2022-09-20T10:57:18;3.13;;;1.33;;
22904;SDS011;11619;50.140;8.518;2022-09-20T10:59:49;5.30;;;2.00;;
22904;SDS011;11619;50.140;8.518;2022-09-20T11:02:50;4.38;;;1.90;;
22904;SDS011;11619;50.140;8.518;2022-09-20T11:08:16;8.57;;;2.17;;
22904;SDS011;11619;50.140;8.518;2022-09-20T11:10:48;7.68;;;2.88;;
22904;SDS011;11619;50.140;8.518;2022-09-20T11:15:57;7.65;;;2.75;;
22904;SDS011;11619;50.140;8.518;2022-09-20T11:18:29;8.27;;;3.15;;
22904;SDS011;11619;50.140;8.518;2022-09-20T11:21:10;4.97;;;3.00;;
22904;SDS011;11619;50.140;8.518;2022-09-20T11:23:51;6.82;;;2.70;;
22904;SDS011;11619;50.140;8.518;2022-09-20T11:26:27;7.72;;;2.88;;
22904;SDS011;11619;50.140;8.518;2022-09-20T11:29:00;6.70;;;2.80;;
22904;SDS011;11619;50.140;8.518;2022-09-20T11:31:48;4.53;;;3.00;;
22904;SDS011;11619;50.140;8.518;2022-09-20T11:34:20;9.10;;;3.40;;
22904;SDS011;11619;50.140;8.518;2022-09-20T11:37:00;7.10;;;2.80;;
22904;SDS011;11619;50.140;8.518;2022-09-20T11:39:48;7.47;;;3.03;;
22904;SDS011;11619;50.140;8.518;2022-09-20T11:42:17;3.65;;;2.95;;
22904;SDS011;11619;50.140;8.518;2022-09-20T11:44:45;6.50;;;2.78;;
22904;SDS011;11619;50.140;8.518;2022-09-20T11:56:02;6.45;;;2.63;;
22904;SDS011;11619;50.140;8.518;2022-09-20T11:58:43;4.93;;;2.75;;
22904;SDS011;11619;50.140;8.518;2022-09-20T12:01:24;3.85;;;2.35;;
22904;SDS011;11619;50.140;8.518;2022-09-20T12:03:58;5.80;;;2.92;;
22904;SDS011;11619;50.140;8.518;2022-09-20T12:06:57;5.47;;;2.58;;
22904;SDS011;11619;50.140;8.518;2022-09-20T12:09:34;7.00;;;2.92;;
22904;SDS011;11619;50.140;8.518;2022-09-20T12:12:26;4.72;;;2.58;;
22904;SDS011;11619;50.140;8.518;2022-09-20T12:14:54;4.47;;;2.13;;
22904;SDS011;11619;50.140;8.518;2022-09-20T12:28:40;4.05;;;2.28;;
22904;SDS011;11619;50.140;8.518;2022-09-20T12:36:36;3.73;;;2.00;;
22904;SDS011;11619;50.140;8.518;2022-09-20T12:39:04;3.67;;;2.25;;
22904;SDS011;11619;50.140;8.518;2022-09-20T12:44:22;5.55;;;2.30;;
22904;SDS011;11619;50.140;8.518;2022-09-20T12:46:53;4.78;;;2.05;;
22904;SDS011;11619;50.140;8.518;2022-09-20T12:49:23;2.72;;;2.03;;
22904;SDS011;11619;50.140;8.518;2022-09-20T12:55:29;3.40;;;2.20;;
22904;SDS011;11619;50.140;8.518;2022-09-20T13:00:42;3.15;;;1.75;;
22904;SDS011;11619;50.140;8.518;2022-09-20T13:05:40;2.28;;;1.65;;
22904;SDS011;11619;50.140;8.518;2022-09-20T13:10:39;3.35;;;1.52;;
22904;SDS011;11619;50.140;8.518;2022-09-20T13:13:12;3.17;;;1.88;;
22904;SDS011;11619;50.140;8.518;2022-09-20T13:15:53;2.67;;;1.70;;
22904;SDS011;11619;50.140;8.518;2022-09-20T13:18:20;4.70;;;2.35;;
22904;SDS011;11619;50.140;8.518;2022-09-20T13:20:49;3.63;;;2.17;;
22904;SDS011;11619;50.140;8.518;2022-09-20T13:23:18;2.05;;;1.63;;
22904;SDS011;11619;50.140;8.518;2022-09-20T13:25:46;4.57;;;2.00;;
22904;SDS011;11619;50.140;8.518;2022-09-20T13:28:23;4.97;;;1.92;;
22904;SDS011;11619;50.140;8.518;2022-09-20T13:31:21;3.40;;;1.70;;
22904;SDS011;11619;50.140;8.518;2022-09-20T13:33:47;3.60;;;1.90;;
22904;SDS011;11619;50.140;8.518;2022-09-20T13:36:15;3.72;;;1.98;;
22904;SDS011;11619;50.140;8.518;2022-09-20T13:38:48;3.42;;;1.92;;
22904;SDS011;11619;50.140;8.518;2022-09-20T13:41:14;3.55;;;2.15;;
22904;SDS011;11619;50.140;8.518;2022-09-20T13:43:41;3.42;;;2.30;;
22904;SDS011;11619;50.140;8.518;2022-09-20T13:46:16;3.72;;;2.10;;
22904;SDS011;11619;50.140;8.518;2022-09-20T13:48:46;4.15;;;2.53;;
22904;SDS011;11619;50.140;8.518;2022-09-20T13:51:17;8.13;;;2.20;;
22904;SDS011;11619;50.140;8.518;2022-09-20T13:53:53;3.28;;;1.98;;
22904;SDS011;11619;50.140;8.518;2022-09-20T13:56:42;6.60;;;2.50;;
22904;SDS011;11619;50.140;8.518;2022-09-20T13:59:10;5.78;;;2.28;;
22904;SDS011;11619;50.140;8.518;2022-09-20T14:01:47;6.80;;;1.90;;
22904;SDS011;11619;50.140;8.518;2022-09-20T14:04:16;2.50;;;1.60;;
22904;SDS011;11619;50.140;8.518;2022-09-20T14:06:46;3.78;;;1.80;;
22904;SDS011;11619;50.140;8.518;2022-09-20T14:09:17;3.42;;;1.92;;
22904;SDS011;11619;50.140;8.518;2022-09-20T14:11:46;3.53;;;1.50;;
22904;SDS011;11619;50.140;8.518;2022-09-20T14:14:13;3.40;;;2.00;;
22904;SDS011;11619;50.140;8.518;2022-09-20T14:16:47;1.88;;;1.48;;
22904;SDS011;11619;50.140;8.518;2022-09-20T14:19:15;5.75;;;1.73;;
22904;SDS011;11619;50.140;8.518;2022-09-20T14:21:43;5.30;;;2.05;;
22904;SDS011;11619;50.140;8.518;2022-09-20T14:26:39;4.40;;;1.60;;
22904;SDS011;11619;50.140;8.518;2022-09-20T14:32:05;3.93;;;1.40;;
22904;SDS011;11619;50.140;8.518;2022-09-20T14:34:37;4.10;;;1.60;;
22904;SDS011;11619;50.140;8.518;2022-09-20T14:37:06;2.92;;;1.20;;
22904;SDS011;11619;50.140;8.518;2022-09-20T14:39:43;5.78;;;1.55;;
22904;SDS011;11619;50.140;8.518;2022-09-20T14:42:34;3.35;;;1.23;;
22904;SDS011;11619;50.140;8.518;2022-09-20T14:45:00;1.55;;;1.13;;
22904;SDS011;11619;50.140;8.518;2022-09-20T14:47:34;3.78;;;1.17;;
22904;SDS011;11619;50.140;8.518;2022-09-20T14:50:04;5.80;;;1.20;;
22904;SDS011;11619;50.140;8.518;2022-09-20T14:52:58;2.65;;;1.23;;
22904;SDS011;11619;50.140;8.518;2022-09-20T14:55:29;2.55;;;1.08;;
22904;SDS011;11619;50.140;8.518;2022-09-20T14:58:09;1.27;;;1.02;;
22904;SDS011;11619;50.140;8.518;2022-09-20T15:00:46;3.95;;;1.17;;
22904;SDS011;11619;50.140;8.518;2022-09-20T15:03:15;5.35;;;1.45;;
22904;SDS011;11619;50.140;8.518;2022-09-20T15:05:44;3.08;;;1.30;;
22904;SDS011;11619;50.140;8.518;2022-09-20T15:08:12;2.92;;;1.38;;
22904;SDS011;11619;50.140;8.518;2022-09-20T15:10:40;1.92;;;1.00;;
22904;SDS011;11619;50.140;8.518;2022-09-20T15:13:08;2.70;;;1.13;;
22904;SDS011;11619;50.140;8.518;2022-09-20T15:15:35;1.75;;;1.00;;
22904;SDS011;11619;50.140;8.518;2022-09-20T15:18:02;4.85;;;1.08;;
22904;SDS011;11619;50.140;8.518;2022-09-20T15:20:43;5.05;;;1.27;;
22904;SDS011;11619;50.140;8.518;2022-09-20T15:23:09;4.80;;;1.20;;
22904;SDS011;11619;50.140;8.518;2022-09-20T15:25:35;1.70;;;0.80;;
22904;SDS011;11619;50.140;8.518;2022-09-20T15:28:02;3.55;;;1.15;;
22904;SDS011;11619;50.140;8.518;2022-09-20T15:30:29;2.92;;;0.85;;
22904;SDS011;11619;50.140;8.518;2022-09-20T15:32:55;2.55;;;1.27;;
22904;SDS011;11619;50.140;8.518;2022-09-20T15:35:27;2.90;;;1.10;;
22904;SDS011;11619;50.140;8.518;2022-09-20T15:37:54;1.40;;;0.85;;
22904;SDS011;11619;50.140;8.518;2022-09-20T15:40:20;1.85;;;1.00;;
22904;SDS011;11619;50.140;8.518;2022-09-20T15:42:47;5.40;;;1.08;;
22904;SDS011;11619;50.140;8.518;2022-09-20T15:45:13;2.15;;;0.98;;
22904;SDS011;11619;50.140;8.518;2022-09-20T15:47:39;1.70;;;1.02;;
22904;SDS011;11619;50.140;8.518;2022-09-20T15:50:06;2.67;;;0.93;;
22904;SDS011;11619;50.140;8.518;2022-09-20T15:52:34;3.38;;;1.25;;
22904;SDS011;11619;50.140;8.518;2022-09-20T15:55:01;2.53;;;1.27;;
22904;SDS011;11619;50.140;8.518;2022-09-20T15:57:29;3.22;;;1.23;;
22904;SDS011;11619;50.140;8.518;2022-09-20T15:59:56;4.32;;;1.10;;
22904;SDS011;11619;50.140;8.518;2022-09-20T16:02:23;2.70;;;1.10;;
22904;SDS011;11619;50.140;8.518;2022-09-20T16:04:50;2.47;;;1.10;;
22904;SDS011;11619;50.140;8.518;2022-09-20T16:07:20;5.60;;;1.17;;
22904;SDS011;11619;50.140;8.518;2022-09-20T16:09:53;2.28;;;1.20;;
22904;SDS011;11619;50.140;8.518;2022-09-20T16:12:21;2.08;;;1.10;;
22904;SDS011;11619;50.140;8.518;2022-09-20T16:14:48;3.17;;;0.88;;
22904;SDS011;11619;50.140;8.518;2022-09-20T16:17:15;7.15;;;1.50;;
22904;SDS011;11619;50.140;8.518;2022-09-20T16:19:42;2.58;;;1.20;;
22904;SDS011;11619;50.140;8.518;2022-09-20T16:22:11;2.33;;;0.90;;
22904;SDS011;11619;50.140;8.518;2022-09-20T16:24:37;3.35;;;1.30;;
22904;SDS011;11619;50.140;8.518;2022-09-20T16:27:04;4.22;;;1.33;;
22904;SDS011;11619;50.140;8.518;2022-09-20T16:29:32;3.22;;;1.30;;
22904;SDS011;11619;50.140;8.518;2022-09-20T16:31:59;2.45;;;1.20;;
22904;SDS011;11619;50.140;8.518;2022-09-20T16:34:26;4.85;;;1.73;;
22904;SDS011;11619;50.140;8.518;2022-09-20T16:36:57;2.50;;;1.20;;
22904;SDS011;11619;50.140;8.518;2022-09-20T16:39:29;3.92;;;1.10;;
22904;SDS011;11619;50.140;8.518;2022-09-20T16:41:56;3.95;;;1.63;;
22904;SDS011;11619;50.140;8.518;2022-09-20T16:44:26;5.32;;;1.70;;
22904;SDS011;11619;50.140;8.518;2022-09-20T16:46:52;4.82;;;1.60;;
22904;SDS011;11619;50.140;8.518;2022-09-20T16:49:18;7.55;;;4.03;;
22904;SDS011;11619;50.140;8.518;2022-09-20T16:51:45;4.25;;;1.67;;
22904;SDS011;11619;50.140;8.518;2022-09-20T16:54:12;2.35;;;1.30;;
22904;SDS011;11619;50.140;8.518;2022-09-20T16:56:40;1.92;;;1.45;;
22904;SDS011;11619;50.140;8.518;2022-09-20T16:59:08;3.90;;;1.40;;
22904;SDS011;11619;50.140;8.518;2022-09-20T17:01:36;3.55;;;1.02;;
22904;SDS011;11619;50.140;8.518;2022-09-20T17:04:03;2.45;;;1.40;;
22904;SDS011;11619;50.140;8.518;2022-09-20T17:06:31;2.50;;;1.55;;
22904;SDS011;11619;50.140;8.518;2022-09-20T17:08:59;6.10;;;1.60;;
22904;SDS011;11619;50.140;8.518;2022-09-20T17:11:29;2.95;;;1.58;;
22904;SDS011;11619;50.140;8.518;2022-09-20T17:13:58;3.67;;;1.50;;
22904;SDS011;11619;50.140;8.518;2022-09-20T17:16:26;4.22;;;1.42;;
22904;SDS011;11619;50.140;8.518;2022-09-20T17:18:54;4.28;;;2.13;;
22904;SDS011;11619;50.140;8.518;2022-09-20T17:21:21;3.58;;;2.03;;
22904;SDS011;11619;50.140;8.518;2022-09-20T17:23:49;2.42;;;1.48;;
22904;SDS011;11619;50.140;8.518;2022-09-20T17:26:27;3.65;;;1.30;;
22904;SDS011;11619;50.140;8.518;2022-09-20T17:28:56;2.85;;;1.75;;
22904;SDS011;11619;50.140;8.518;2022-09-20T17:31:27;2.85;;;1.63;;
22904;SDS011;11619;50.140;8.518;2022-09-20T17:36:29;2.42;;;1.50;;
22904;SDS011;11619;50.140;8.518;2022-09-20T17:38:57;3.90;;;1.88;;
22904;SDS011;11619;50.140;8.518;2022-09-20T17:41:29;5.45;;;1.60;;
22904;SDS011;11619;50.140;8.518;2022-09-20T17:43:58;3.20;;;1.25;;
22904;SDS011;11619;50.140;8.518;2022-09-20T17:46:26;4.43;;;1.80;;
22904;SDS011;11619;50.140;8.518;2022-09-20T17:48:57;2.58;;;1.50;;
22904;SDS011;11619;50.140;8.518;2022-09-20T17:51:26;4.30;;;1.45;;
22904;SDS011;11619;50.140;8.518;2022-09-20T17:53:54;6.50;;;1.75;;
22904;SDS011;11619;50.140;8.518;2022-09-20T17:56:24;4.40;;;1.60;;
22904;SDS011;11619;50.140;8.518;2022-09-20T17:58:54;5.80;;;1.55;;
22904;SDS011;11619;50.140;8.518;2022-09-20T18:01:21;3.28;;;1.38;;
22904;SDS011;11619;50.140;8.518;2022-09-20T18:03:48;4.40;;;1.77;;
22904;SDS011;11619;50.140;8.518;2022-09-20T18:06:19;3.10;;;1.17;;
22904;SDS011;11619;50.140;8.518;2022-09-20T18:08:47;3.58;;;1.35;;
22904;SDS011;11619;50.140;8.518;2022-09-20T18:11:16;2.92;;;1.23;;
22904;SDS011;11619;50.140;8.518;2022-09-20T18:13:43;4.45;;;1.65;;
22904;SDS011;11619;50.140;8.518;2022-09-20T18:16:10;5.18;;;1.67;;
22904;SDS011;11619;50.140;8.518;2022-09-20T18:18:41;2.38;;;1.30;;
22904;SDS011;11619;50.140;8.518;2022-09-20T18:21:12;4.65;;;1.70;;
22904;SDS011;11619;50.140;8.518;2022-09-20T18:23:39;3.28;;;1.40;;
22904;SDS011;11619;50.140;8.518;2022-09-20T18:26:10;1.50;;;1.30;;
22904;SDS011;11619;50.140;8.518;2022-09-20T18:31:28;4.75;;;1.60;;
22904;SDS011;11619;50.140;8.518;2022-09-20T18:33:58;2.00;;;1.30;;
22904;SDS011;11619;50.140;8.518;2022-09-20T18:36:26;3.78;;;1.75;;
22904;SDS011;11619;50.140;8.518;2022-09-20T18:38:54;2.67;;;1.35;;
22904;SDS011;11619;50.140;8.518;2022-09-20T18:41:21;2.58;;;1.45;;
22904;SDS011;11619;50.140;8.518;2022-09-20T18:43:52;2.85;;;1.67;;
22904;SDS011;11619;50.140;8.518;2022-09-20T18:46:20;4.13;;;1.85;;
22904;SDS011;11619;50.140;8.518;2022-09-20T18:48:50;3.72;;;2.00;;
22904;SDS011;11619;50.140;8.518;2022-09-20T18:51:18;1.92;;;1.50;;
22904;SDS011;11619;50.140;8.518;2022-09-20T18:53:45;1.92;;;1.52;;
22904;SDS011;11619;50.140;8.518;2022-09-20T18:58:54;3.95;;;1.98;;
22904;SDS011;11619;50.140;8.518;2022-09-20T19:10:19;5.63;;;2.25;;
22904;SDS011;11619;50.140;8.518;2022-09-20T19:15:29;4.53;;;2.10;;
22904;SDS011;11619;50.140;8.518;2022-09-20T19:18:48;2.97;;;1.63;;
22904;SDS011;11619;50.140;8.518;2022-09-20T19:23:58;3.40;;;2.15;;
22904;SDS011;11619;50.140;8.518;2022-09-20T19:26:31;4.38;;;2.10;;
22904;SDS011;11619;50.140;8.518;2022-09-20T19:29:03;2.88;;;1.90;;
22904;SDS011;11619;50.140;8.518;2022-09-20T19:31:40;4.20;;;2.03;;
22904;SDS011;11619;50.140;8.518;2022-09-20T19:34:15;3.65;;;1.60;;
22904;SDS011;11619;50.140;8.518;2022-09-20T19:45:22;3.38;;;2.05;;
22904;SDS011;11619;50.140;8.518;2022-09-20T19:52:53;4.93;;;2.08;;
22904;SDS011;11619;50.140;8.518;2022-09-20T19:55:21;2.20;;;1.50;;
22904;SDS011;11619;50.140;8.518;2022-09-20T19:57:49;2.42;;;1.80;;
22904;SDS011;11619;50.140;8.518;2022-09-20T20:00:17;3.30;;;1.80;;
22904;SDS011;11619;50.140;8.518;2022-09-20T20:02:45;4.88;;;1.70;;